Time;durP1;ratioP1;P1;durP2;ratioP2;P2;SDS_P1;SDS_P2;PMS_P1;PMS_P2;Temp;Humidity;BMP_temperature;BMP_pressure;BME280_temperature;BME280_humidity;BME280_pressure;Samples;Min_cycle;Max_cycle;Signal;HPM_P1;HPM_P2
2022/02/26 00:08:13;;;;;;;;;125.50;124.50;;;;;;;;2;261077738;261077738;-77
2022/02/26 00:17:40;;;;;;;;;121.50;113.00;;;;;;;;2;288083602;288083602;-77
2022/02/26 00:25:56;;;;;;;;;83.00;82.50;;;;;;;;2;261076604;261076604;-77
2022/02/26 00:35:23;;;;;;;;;97.00;97.00;;;;;;;;2;288085124;288085124;-78
2022/02/26 00:43:39;;;;;;;;;69.50;61.00;;;;;;;;2;261076943;261076943;-78
2022/02/26 00:53:06;;;;;;;;;67.50;59.50;;;;;;;;2;288082293;288082293;-78
2022/02/26 01:01:22;;;;;;;;;79.00;77.50;;;;;;;;2;261075445;261075445;-78
2022/02/26 01:10:50;;;;;;;;;106.00;100.00;;;;;;;;2;288083170;288083170;-78
2022/02/26 01:19:06;;;;;;;;;76.00;71.50;;;;;;;;2;261077203;261077203;-78
2022/02/26 01:28:33;;;;;;;;;71.00;63.00;;;;;;;;2;288084013;288084013;-78
2022/02/26 01:36:49;;;;;;;;;84.00;75.00;;;;;;;;2;261079218;261079218;-78
2022/02/26 01:46:16;;;;;;;;;77.50;75.00;;;;;;;;2;288088403;288088403;-78
2022/02/26 01:54:32;;;;;;;;;92.50;91.00;;;;;;;;2;261078131;261078131;-78
2022/02/26 02:03:59;;;;;;;;;68.00;58.50;;;;;;;;2;288083931;288083931;-78
2022/02/26 02:12:15;;;;;;;;;73.50;60.50;;;;;;;;2;261077498;261077498;-78
2022/02/26 02:21:42;;;;;;;;;81.00;72.00;;;;;;;;2;288085764;288085764;-77
2022/02/26 02:29:58;;;;;;;;;75.50;64.00;;;;;;;;2;261075912;261075912;-77
2022/02/26 02:39:26;;;;;;;;;64.00;53.00;;;;;;;;2;288086195;288086195;-77
2022/02/26 02:47:41;;;;;;;;;85.00;85.00;;;;;;;;2;261077100;261077100;-77
2022/02/26 02:57:09;;;;;;;;;111.50;111.50;;;;;;;;2;288082474;288082474;-77
2022/02/26 03:05:24;;;;;;;;;69.00;60.00;;;;;;;;2;261077146;261077146;-77
2022/02/26 03:14:52;;;;;;;;;99.00;97.50;;;;;;;;2;288086534;288086534;-77
2022/02/26 03:23:07;;;;;;;;;71.50;64.00;;;;;;;;2;261075769;261075769;-77
2022/02/26 03:32:35;;;;;;;;;68.50;58.50;;;;;;;;2;288086939;288086939;-77
2022/02/26 03:40:50;;;;;;;;;57.00;49.00;;;;;;;;2;261077917;261077917;-77
2022/02/26 03:50:18;;;;;;;;;69.00;52.50;;;;;;;;2;288083448;288083448;-77
2022/02/26 03:58:33;;;;;;;;;75.00;62.50;;;;;;;;2;261075489;261075489;-77
2022/02/26 04:08:01;;;;;;;;;70.50;57.50;;;;;;;;2;288086157;288086157;-77
2022/02/26 04:16:16;;;;;;;;;90.00;88.50;;;;;;;;2;261075822;261075822;-77
2022/02/26 04:25:44;;;;;;;;;70.50;56.00;;;;;;;;2;288087685;288087685;-77
2022/02/26 04:33:59;;;;;;;;;63.00;52.00;;;;;;;;2;261077910;261077910;-77
2022/02/26 04:43:27;;;;;;;;;63.50;52.00;;;;;;;;2;288083751;288083751;-77
2022/02/26 04:51:43;;;;;;;;;57.00;46.00;;;;;;;;2;261079976;261079976;-77
2022/02/26 05:01:10;;;;;;;;;58.50;49.00;;;;;;;;2;288086717;288086717;-77
2022/02/26 05:09:26;;;;;;;;;50.50;40.50;;;;;;;;2;261079112;261079112;-77
2022/02/26 05:18:53;;;;;;;;;73.50;59.00;;;;;;;;2;288084100;288084100;-77
2022/02/26 05:27:09;;;;;;;;;75.00;70.50;;;;;;;;2;261076623;261076623;-77
2022/02/26 05:36:36;;;;;;;;;75.00;67.50;;;;;;;;2;288086692;288086692;-77
2022/02/26 05:44:52;;;;;;;;;64.50;55.50;;;;;;;;2;261078707;261078707;-77
2022/02/26 05:54:19;;;;;;;;;51.50;43.50;;;;;;;;2;288082734;288082734;-76
2022/02/26 06:02:35;;;;;;;;;70.00;61.00;;;;;;;;2;261074690;261074690;-77
2022/02/26 06:12:02;;;;;;;;;73.00;64.00;;;;;;;;2;288087338;288087338;-76
2022/02/26 06:20:18;;;;;;;;;90.50;88.00;;;;;;;;2;261075516;261075516;-77
2022/02/26 06:29:45;;;;;;;;;71.50;61.50;;;;;;;;2;288086198;288086198;-77
2022/02/26 06:38:01;;;;;;;;;74.00;69.00;;;;;;;;2;261078278;261078278;-77
2022/02/26 06:47:29;;;;;;;;;75.50;60.50;;;;;;;;2;288082258;288082258;-77
2022/02/26 06:55:44;;;;;;;;;67.00;56.00;;;;;;;;2;261076945;261076945;-77
2022/02/26 07:05:12;;;;;;;;;55.00;46.50;;;;;;;;2;288084433;288084433;-76
2022/02/26 07:13:27;;;;;;;;;72.00;56.00;;;;;;;;2;261075290;261075290;-76
2022/02/26 07:22:55;;;;;;;;;87.50;80.00;;;;;;;;2;288085174;288085174;-75
2022/02/26 07:31:10;;;;;;;;;76.50;65.50;;;;;;;;2;261077280;261077280;-78
2022/02/26 07:40:41;;;;;;;;;74.00;68.00;;;;;;;;2;288085197;288085197;-77
2022/02/26 07:48:57;;;;;;;;;57.50;44.50;;;;;;;;2;261076876;261076876;-77
2022/02/26 07:58:24;;;;;;;;;82.50;78.00;;;;;;;;2;288085555;288085555;-77
2022/02/26 08:06:40;;;;;;;;;88.00;88.00;;;;;;;;2;261079858;261079858;-77
2022/02/26 08:16:10;;;;;;;;;70.00;61.50;;;;;;;;2;288084357;288084357;-77
2022/02/26 08:24:26;;;;;;;;;102.00;97.50;;;;;;;;2;261077429;261077429;-77
2022/02/26 08:33:53;;;;;;;;;105.00;105.00;;;;;;;;2;288085255;288085255;-77
2022/02/26 08:42:09;;;;;;;;;88.00;87.00;;;;;;;;2;261076058;261076058;-77
2022/02/26 08:51:36;;;;;;;;;36.50;33.50;;;;;;;;2;288083305;288083305;-77
2022/02/26 08:59:52;;;;;;;;;0.00;0.00;;;;;;;;2;261076726;261076726;-77
2022/02/26 09:09:20;;;;;;;;;9.50;9.50;;;;;;;;2;288081629;288081629;-77
2022/02/26 09:17:35;;;;;;;;;34.50;30.00;;;;;;;;2;261076263;261076263;-77
2022/02/26 09:27:03;;;;;;;;;20.50;18.00;;;;;;;;2;288083018;288083018;-77
2022/02/26 09:35:18;;;;;;;;;75.00;71.00;;;;;;;;2;261077171;261077171;-77
2022/02/26 09:44:46;;;;;;;;;89.50;89.50;;;;;;;;2;288084771;288084771;-77
2022/02/26 09:53:01;;;;;;;;;76.00;70.50;;;;;;;;2;261075374;261075374;-77
2022/02/26 10:02:33;;;;;;;;;69.50;68.00;;;;;;;;2;288084050;288084050;-77
2022/02/26 10:10:53;;;;;;;;;108.00;105.00;;;;;;;;2;261073493;261073493;-77
2022/02/26 10:20:22;;;;;;;;;97.50;97.50;;;;;;;;2;288083360;288083360;-77
2022/02/26 10:28:39;;;;;;;;;38.00;35.50;;;;;;;;2;261075998;261075998;-77
2022/02/26 10:38:12;;;;;;;;;49.50;49.00;;;;;;;;2;288085072;288085072;-77
2022/02/26 10:46:32;;;;;;;;;41.00;35.50;;;;;;;;2;261076877;261076877;-77
2022/02/26 10:55:59;;;;;;;;;34.50;29.50;;;;;;;;2;288084137;288084137;-77
2022/02/26 11:04:15;;;;;;;;;47.50;44.00;;;;;;;;2;261077353;261077353;-77
2022/02/26 11:13:44;;;;;;;;;81.50;78.50;;;;;;;;2;288082321;288082321;-77
2022/02/26 11:21:59;;;;;;;;;59.00;54.00;;;;;;;;2;261079535;261079535;-77
2022/02/26 11:31:29;;;;;;;;;59.50;52.00;;;;;;;;2;288087457;288087457;-77
2022/02/26 11:39:46;;;;;;;;;72.00;65.50;;;;;;;;2;261077435;261077435;-77
2022/02/26 11:49:19;;;;;;;;;81.00;80.00;;;;;;;;2;288086098;288086098;-78
2022/02/26 11:57:35;;;;;;;;;68.50;55.00;;;;;;;;2;261076288;261076288;-78
2022/02/26 12:07:07;;;;;;;;;38.50;34.50;;;;;;;;2;288081383;288081383;-78
2022/02/26 12:15:26;;;;;;;;;77.00;73.50;;;;;;;;2;261077607;261077607;-78
2022/02/26 12:24:55;;;;;;;;;57.00;48.00;;;;;;;;2;288082354;288082354;-79
2022/02/26 12:33:15;;;;;;;;;55.00;46.00;;;;;;;;2;261075618;261075618;-78
2022/02/26 12:42:43;;;;;;;;;81.00;79.00;;;;;;;;2;288083810;288083810;-79
2022/02/26 12:51:02;;;;;;;;;109.00;109.00;;;;;;;;2;261076742;261076742;-79
2022/02/26 13:00:31;;;;;;;;;63.50;53.50;;;;;;;;2;288083072;288083072;-79
2022/02/26 13:08:47;;;;;;;;;;;;;;;;;;2;261079333;261079333;-78
2022/02/26 13:18:15;;;;;;;;;48.00;40.00;;;;;;;;2;288083873;288083873;-78
2022/02/26 13:26:32;;;;;;;;;62.00;51.50;;;;;;;;2;261077898;261077898;-78
2022/02/26 13:35:59;;;;;;;;;3.00;3.00;;;;;;;;2;288084884;288084884;-78
2022/02/26 13:44:15;;;;;;;;;55.00;46.00;;;;;;;;2;261076348;261076348;-78
2022/02/26 13:53:42;;;;;;;;;49.00;42.00;;;;;;;;2;288087663;288087663;-78
2022/02/26 14:01:58;;;;;;;;;50.00;43.00;;;;;;;;2;261075303;261075303;-78
2022/02/26 14:11:29;;;;;;;;;71.50;64.00;;;;;;;;2;288085306;288085306;-78
2022/02/26 14:19:46;;;;;;;;;61.00;50.50;;;;;;;;2;261076620;261076620;-73
2022/02/26 14:29:13;;;;;;;;;48.00;41.00;;;;;;;;2;288083662;288083662;-73
2022/02/26 14:37:29;;;;;;;;;53.00;44.50;;;;;;;;2;261075145;261075145;-74
2022/02/26 14:46:56;;;;;;;;;4.50;4.50;;;;;;;;2;288083656;288083656;-73
2022/02/26 14:55:13;;;;;;;;;40.50;33.00;;;;;;;;2;261076145;261076145;-74
2022/02/26 15:04:43;;;;;;;;;19.00;19.00;;;;;;;;2;288081573;288081573;-74
2022/02/26 15:12:59;;;;;;;;;49.50;42.50;;;;;;;;2;261079788;261079788;-75
2022/02/26 15:22:26;;;;;;;;;50.00;42.50;;;;;;;;2;288085543;288085543;-76
2022/02/26 15:30:42;;;;;;;;;52.00;41.50;;;;;;;;2;261077370;261077370;-75
2022/02/26 15:40:10;;;;;;;;;48.00;41.00;;;;;;;;2;288084422;288084422;-75
2022/02/26 15:48:27;;;;;;;;;44.50;39.00;;;;;;;;2;261074974;261074974;-76
2022/02/26 15:57:55;;;;;;;;;22.00;22.00;;;;;;;;2;288086617;288086617;-75
2022/02/26 16:06:10;;;;;;;;;69.00;58.50;;;;;;;;2;261081004;261081004;-75
2022/02/26 16:15:38;;;;;;;;;46.00;34.00;;;;;;;;2;288083808;288083808;-75
2022/02/26 16:23:53;;;;;;;;;47.00;41.00;;;;;;;;2;261075810;261075810;-75
2022/02/26 16:33:22;;;;;;;;;30.00;29.00;;;;;;;;2;288084016;288084016;-75
2022/02/26 16:44:57;;;;;;;;;64.50;51.50;;;;;;;;2;261075992;261075992;-74
2022/02/26 16:54:25;;;;;;;;;37.00;34.00;;;;;;;;2;288084973;288084973;-74
2022/02/26 17:02:41;;;;;;;;;49.50;36.50;;;;;;;;2;261077797;261077797;-74
2022/02/26 17:12:09;;;;;;;;;38.50;35.50;;;;;;;;2;288083122;288083122;-74
2022/02/26 17:20:24;;;;;;;;;36.50;33.50;;;;;;;;2;261078105;261078105;-74
2022/02/26 17:29:52;;;;;;;;;48.00;41.00;;;;;;;;2;288085661;288085661;-73
2022/02/26 17:38:08;;;;;;;;;63.50;51.50;;;;;;;;2;261075924;261075924;-74
2022/02/26 17:47:36;;;;;;;;;48.00;41.00;;;;;;;;2;288085759;288085759;-74
2022/02/26 17:55:52;;;;;;;;;52.50;44.50;;;;;;;;2;261078314;261078314;-74
2022/02/26 18:05:20;;;;;;;;;63.50;48.00;;;;;;;;2;288082047;288082047;-77
2022/02/26 18:13:35;;;;;;;;;33.00;31.50;;;;;;;;2;261077710;261077710;-77
2022/02/26 18:23:04;;;;;;;;;50.50;43.00;;;;;;;;2;288084859;288084859;-77
2022/02/26 18:31:19;;;;;;;;;59.00;49.50;;;;;;;;2;261076672;261076672;-77
2022/02/26 18:40:48;;;;;;;;;53.50;45.50;;;;;;;;2;288086260;288086260;-77
2022/02/26 18:49:05;;;;;;;;;54.50;46.00;;;;;;;;2;261075659;261075659;-77
2022/02/26 18:58:33;;;;;;;;;87.00;84.00;;;;;;;;2;288083639;288083639;-77
2022/02/26 19:06:51;;;;;;;;;73.00;61.00;;;;;;;;2;261078638;261078638;-77
2022/02/26 19:16:18;;;;;;;;;80.00;79.00;;;;;;;;2;288082921;288082921;-77
2022/02/26 19:24:35;;;;;;;;;71.00;63.50;;;;;;;;2;261076039;261076039;-77
2022/02/26 19:34:02;;;;;;;;;158.00;158.00;;;;;;;;2;288084378;288084378;-74
2022/02/26 19:42:20;;;;;;;;;175.00;175.00;;;;;;;;2;261076299;261076299;-75
2022/02/26 19:51:48;;;;;;;;;105.50;105.50;;;;;;;;2;288083375;288083375;-75
2022/02/26 20:00:07;;;;;;;;;77.50;74.50;;;;;;;;2;261077951;261077951;-75
2022/02/26 20:09:35;;;;;;;;;86.50;86.00;;;;;;;;2;288084866;288084866;-74
2022/02/26 20:17:53;;;;;;;;;102.50;102.50;;;;;;;;2;261074975;261074975;-74
2022/02/26 20:27:21;;;;;;;;;105.50;103.50;;;;;;;;2;288086223;288086223;-74
2022/02/26 20:35:36;;;;;;;;;78.50;76.50;;;;;;;;2;261078011;261078011;-75
2022/02/26 20:45:04;;;;;;;;;55.00;45.00;;;;;;;;2;288082672;288082672;-74
2022/02/26 20:53:20;;;;;;;;;63.50;54.00;;;;;;;;2;261075231;261075231;-74
2022/02/26 21:02:48;;;;;;;;;46.50;40.50;;;;;;;;2;288088743;288088743;-74
2022/02/26 21:11:03;;;;;;;;;59.50;49.00;;;;;;;;2;261078783;261078783;-74
2022/02/26 21:20:31;;;;;;;;;42.50;37.00;;;;;;;;2;288083994;288083994;-74
2022/02/26 21:28:51;;;;;;;;;85.00;83.00;;;;;;;;2;261078576;261078576;-75
2022/02/26 21:38:19;;;;;;;;;80.50;75.50;;;;;;;;2;288084702;288084702;-75
2022/02/26 21:46:34;;;;;;;;;72.00;65.50;;;;;;;;2;261075721;261075721;-75
2022/02/26 21:56:05;;;;;;;;;73.50;69.50;;;;;;;;2;288082264;288082264;-75
2022/02/26 22:04:21;;;;;;;;;53.50;45.00;;;;;;;;2;261077161;261077161;-74
2022/02/26 22:13:48;;;;;;;;;30.50;29.00;;;;;;;;2;288084478;288084478;-74
2022/02/26 22:22:04;;;;;;;;;41.00;36.50;;;;;;;;2;261078678;261078678;-74
2022/02/26 22:31:32;;;;;;;;;41.00;36.50;;;;;;;;2;288081989;288081989;-74
2022/02/26 22:39:47;;;;;;;;;62.50;51.50;;;;;;;;2;261075892;261075892;-74
2022/02/26 22:49:15;;;;;;;;;32.00;31.00;;;;;;;;2;288086198;288086198;-74
2022/02/26 22:57:30;;;;;;;;;28.00;25.50;;;;;;;;2;261077381;261077381;-75
2022/02/26 23:06:58;;;;;;;;;48.50;40.50;;;;;;;;2;288086266;288086266;-74
2022/02/26 23:15:13;;;;;;;;;43.50;35.50;;;;;;;;2;261076465;261076465;-74
2022/02/26 23:24:41;;;;;;;;;59.00;47.50;;;;;;;;2;288084606;288084606;-74
2022/02/26 23:32:56;;;;;;;;;60.00;51.00;;;;;;;;2;261075866;261075866;-74
2022/02/26 23:42:26;;;;;;;;;60.50;50.00;;;;;;;;2;288082549;288082549;-74
2022/02/26 23:50:42;;;;;;;;;46.50;40.00;;;;;;;;2;261079235;261079235;-74
